Impacts TAF Board INFO
FOR SITUATIONAL AWARENESS. NOT TO BE USED FOR FLIGHT PLANNING PURPOSES.
IDs:

KCLT - Charlotte/Douglas In, NC, US

Issued at 1121 UTC 18 Jan 2018
Updated at 1353 UTC 18 Jan 2018
Potential Impact None Slight Moderate High
Time1252Z 18/14Z 18/15Z 18/16Z 18/17Z 18/18Z 18/19Z 18/20Z 18/21Z 18/22Z 18/23Z 19/00Z 19/01Z 19/02Z>>
Type OBS PRVL PRVL PRVL PRVL PRVL PRVL PRVL PRVL PRVL PRVL PRVL PRVL PRVL
VIS 10 >6 >6 >6 >6 >6 >6 >6 >6 >6 >6 >6 >6 >6
CIG -- -- -- -- -- -- -- -- -- -- -- -- -- --
Cover CLR SKC SKC SKC SKC SKC SKC SKC SKC SKC SKC SKC SKC SKC
FltCat VFR VFR VFR VFR VFR VFR VFR VFR VFR VFR VFR VFR VFR VFR
WX -- -- -- -- -- -- -- -- -- -- -- -- -- --
WDir 250 310 310 310 310 250 250 250 250 250 250 250 230 230
WSpd 5 6 6 6 6 7 7 7 7 7 7 7 3 3
WGst -- -- -- -- -- -- -- -- -- -- -- -- -- --

Raw TAF
KCLT 181121Z 1812/1918 31006KT P6SM SKC
  FM181800 25007KT P6SM SKC
  FM190100 23003KT P6SM SKC


Raw METAR
KCLT 181252Z 25005KT 10SM CLR M11/M13 A3034 RMK AO2 SLP283 T11061128
KCLT 181152Z 32004KT 10SM CLR M11/M14 A3031 RMK AO2 SLP273 70031 T11111139 11089 21111 53007
KCLT 181052Z 30007KT 10SM CLR M11/M14 A3029 RMK AO2 SLP268 T11061139

METAR Board
Radar Display
Forecast Discussion

FOR SITUATIONAL AWARENESS. NOT TO BE USED FOR FLIGHT PLANNING PURPOSES.